sensor_id;sensor_type;location;lat;lon;timestamp;P1;durP1;ratioP1;P2;durP2;ratioP2
46355;SDS011;32066;49.474;11.106;2023-12-29T00:00:21;7.85;;;4.70;;
46355;SDS011;32066;49.474;11.106;2023-12-29T00:02:50;13.95;;;6.43;;
46355;SDS011;32066;49.474;11.106;2023-12-29T00:05:19;11.02;;;6.03;;
46355;SDS011;32066;49.474;11.106;2023-12-29T00:07:50;17.70;;;7.28;;
46355;SDS011;32066;49.474;11.106;2023-12-29T00:10:19;11.52;;;5.65;;
46355;SDS011;32066;49.474;11.106;2023-12-29T00:12:47;16.08;;;5.68;;
46355;SDS011;32066;49.474;11.106;2023-12-29T00:15:17;9.43;;;5.07;;
46355;SDS011;32066;49.474;11.106;2023-12-29T00:17:46;9.02;;;4.68;;
46355;SDS011;32066;49.474;11.106;2023-12-29T00:20:15;10.88;;;5.53;;
46355;SDS011;32066;49.474;11.106;2023-12-29T00:22:43;9.27;;;4.93;;
46355;SDS011;32066;49.474;11.106;2023-12-29T00:25:15;11.32;;;4.97;;
46355;SDS011;32066;49.474;11.106;2023-12-29T00:27:43;9.55;;;4.80;;
46355;SDS011;32066;49.474;11.106;2023-12-29T00:30:12;6.75;;;4.13;;
46355;SDS011;32066;49.474;11.106;2023-12-29T00:32:41;16.20;;;7.90;;
46355;SDS011;32066;49.474;11.106;2023-12-29T00:35:11;14.25;;;7.70;;
46355;SDS011;32066;49.474;11.106;2023-12-29T00:37:44;10.75;;;6.20;;
46355;SDS011;32066;49.474;11.106;2023-12-29T00:40:16;10.38;;;4.65;;
46355;SDS011;32066;49.474;11.106;2023-12-29T00:42:44;6.90;;;3.65;;
46355;SDS011;32066;49.474;11.106;2023-12-29T00:45:13;7.85;;;4.43;;
46355;SDS011;32066;49.474;11.106;2023-12-29T00:47:42;10.02;;;4.47;;
46355;SDS011;32066;49.474;11.106;2023-12-29T00:50:11;8.60;;;4.82;;
46355;SDS011;32066;49.474;11.106;2023-12-29T00:52:39;9.70;;;4.15;;
46355;SDS011;32066;49.474;11.106;2023-12-29T00:55:08;7.35;;;4.00;;
46355;SDS011;32066;49.474;11.106;2023-12-29T00:57:39;9.23;;;4.60;;
46355;SDS011;32066;49.474;11.106;2023-12-29T01:00:10;9.35;;;5.20;;
46355;SDS011;32066;49.474;11.106;2023-12-29T01:02:40;10.90;;;5.03;;
46355;SDS011;32066;49.474;11.106;2023-12-29T01:05:09;12.85;;;5.65;;
46355;SDS011;32066;49.474;11.106;2023-12-29T01:07:38;9.80;;;4.63;;
46355;SDS011;32066;49.474;11.106;2023-12-29T01:10:07;8.00;;;2.97;;
46355;SDS011;32066;49.474;11.106;2023-12-29T01:12:36;5.35;;;2.60;;
46355;SDS011;32066;49.474;11.106;2023-12-29T01:15:08;6.15;;;2.33;;
46355;SDS011;32066;49.474;11.106;2023-12-29T01:17:37;5.20;;;2.55;;
46355;SDS011;32066;49.474;11.106;2023-12-29T01:20:06;5.22;;;2.60;;
46355;SDS011;32066;49.474;11.106;2023-12-29T01:22:36;6.35;;;2.45;;
46355;SDS011;32066;49.474;11.106;2023-12-29T01:25:04;5.32;;;2.45;;
46355;SDS011;32066;49.474;11.106;2023-12-29T01:27:33;5.95;;;2.83;;
46355;SDS011;32066;49.474;11.106;2023-12-29T01:30:05;5.10;;;2.53;;
46355;SDS011;32066;49.474;11.106;2023-12-29T01:32:36;5.10;;;2.67;;
46355;SDS011;32066;49.474;11.106;2023-12-29T01:35:05;7.30;;;2.88;;
46355;SDS011;32066;49.474;11.106;2023-12-29T01:37:34;5.00;;;2.80;;
46355;SDS011;32066;49.474;11.106;2023-12-29T01:40:04;4.43;;;2.50;;
46355;SDS011;32066;49.474;11.106;2023-12-29T01:42:33;5.63;;;2.67;;
46355;SDS011;32066;49.474;11.106;2023-12-29T01:45:01;7.47;;;2.40;;
46355;SDS011;32066;49.474;11.106;2023-12-29T01:47:34;5.22;;;2.53;;
46355;SDS011;32066;49.474;11.106;2023-12-29T01:50:03;5.75;;;2.67;;
46355;SDS011;32066;49.474;11.106;2023-12-29T01:52:33;5.35;;;2.55;;
46355;SDS011;32066;49.474;11.106;2023-12-29T01:55:03;5.68;;;2.58;;
46355;SDS011;32066;49.474;11.106;2023-12-29T01:57:32;5.28;;;2.63;;
46355;SDS011;32066;49.474;11.106;2023-12-29T02:00:05;4.50;;;2.50;;
46355;SDS011;32066;49.474;11.106;2023-12-29T02:02:37;4.97;;;2.50;;
46355;SDS011;32066;49.474;11.106;2023-12-29T02:05:06;5.35;;;2.50;;
46355;SDS011;32066;49.474;11.106;2023-12-29T02:07:37;5.03;;;2.65;;
46355;SDS011;32066;49.474;11.106;2023-12-29T02:10:06;4.93;;;2.60;;
46355;SDS011;32066;49.474;11.106;2023-12-29T02:12:39;4.68;;;2.35;;
46355;SDS011;32066;49.474;11.106;2023-12-29T02:15:10;5.10;;;2.30;;
46355;SDS011;32066;49.474;11.106;2023-12-29T02:17:40;4.38;;;2.28;;
46355;SDS011;32066;49.474;11.106;2023-12-29T02:20:12;5.78;;;2.67;;
46355;SDS011;32066;49.474;11.106;2023-12-29T02:22:42;5.93;;;2.55;;
46355;SDS011;32066;49.474;11.106;2023-12-29T02:25:13;5.20;;;2.63;;
46355;SDS011;32066;49.474;11.106;2023-12-29T02:27:45;5.65;;;3.05;;
46355;SDS011;32066;49.474;11.106;2023-12-29T02:30:24;6.75;;;2.80;;
46355;SDS011;32066;49.474;11.106;2023-12-29T02:32:59;5.65;;;2.63;;
46355;SDS011;32066;49.474;11.106;2023-12-29T02:35:32;6.72;;;3.22;;
46355;SDS011;32066;49.474;11.106;2023-12-29T02:38:03;5.57;;;3.33;;
46355;SDS011;32066;49.474;11.106;2023-12-29T02:40:35;6.32;;;3.05;;
46355;SDS011;32066;49.474;11.106;2023-12-29T02:43:03;5.80;;;3.13;;
46355;SDS011;32066;49.474;11.106;2023-12-29T02:45:32;8.23;;;3.70;;
46355;SDS011;32066;49.474;11.106;2023-12-29T02:48:01;6.10;;;3.40;;
46355;SDS011;32066;49.474;11.106;2023-12-29T02:50:29;6.45;;;3.50;;
46355;SDS011;32066;49.474;11.106;2023-12-29T02:52:56;7.38;;;4.00;;
46355;SDS011;32066;49.474;11.106;2023-12-29T02:55:24;7.00;;;3.90;;
46355;SDS011;32066;49.474;11.106;2023-12-29T02:57:55;7.80;;;3.85;;
46355;SDS011;32066;49.474;11.106;2023-12-29T03:00:24;8.60;;;3.72;;
46355;SDS011;32066;49.474;11.106;2023-12-29T03:02:53;9.40;;;4.20;;
46355;SDS011;32066;49.474;11.106;2023-12-29T03:05:21;6.88;;;4.18;;
46355;SDS011;32066;49.474;11.106;2023-12-29T03:07:50;7.57;;;4.10;;
46355;SDS011;32066;49.474;11.106;2023-12-29T03:10:18;7.90;;;4.65;;
46355;SDS011;32066;49.474;11.106;2023-12-29T03:12:47;9.77;;;4.40;;
46355;SDS011;32066;49.474;11.106;2023-12-29T03:15:19;8.23;;;4.65;;
46355;SDS011;32066;49.474;11.106;2023-12-29T03:17:47;8.75;;;4.20;;
46355;SDS011;32066;49.474;11.106;2023-12-29T03:20:16;8.70;;;4.30;;
46355;SDS011;32066;49.474;11.106;2023-12-29T03:22:45;6.22;;;4.07;;
46355;SDS011;32066;49.474;11.106;2023-12-29T03:25:13;7.88;;;4.60;;
46355;SDS011;32066;49.474;11.106;2023-12-29T03:27:42;7.20;;;4.40;;
46355;SDS011;32066;49.474;11.106;2023-12-29T03:30:11;9.77;;;3.92;;
46355;SDS011;32066;49.474;11.106;2023-12-29T03:32:45;8.05;;;4.68;;
46355;SDS011;32066;49.474;11.106;2023-12-29T03:35:13;8.40;;;4.80;;
46355;SDS011;32066;49.474;11.106;2023-12-29T03:37:42;8.77;;;4.68;;
46355;SDS011;32066;49.474;11.106;2023-12-29T03:40:11;9.43;;;4.43;;
46355;SDS011;32066;49.474;11.106;2023-12-29T03:42:40;8.88;;;4.65;;
46355;SDS011;32066;49.474;11.106;2023-12-29T03:45:09;8.82;;;5.00;;
46355;SDS011;32066;49.474;11.106;2023-12-29T03:47:38;9.43;;;4.78;;
46355;SDS011;32066;49.474;11.106;2023-12-29T03:50:09;8.25;;;4.38;;
46355;SDS011;32066;49.474;11.106;2023-12-29T03:52:38;8.93;;;4.40;;
46355;SDS011;32066;49.474;11.106;2023-12-29T03:55:07;9.85;;;5.25;;
46355;SDS011;32066;49.474;11.106;2023-12-29T03:57:36;8.15;;;4.60;;
46355;SDS011;32066;49.474;11.106;2023-12-29T04:00:05;9.27;;;5.35;;
46355;SDS011;32066;49.474;11.106;2023-12-29T04:02:37;7.82;;;4.55;;
46355;SDS011;32066;49.474;11.106;2023-12-29T04:05:09;7.70;;;4.90;;
46355;SDS011;32066;49.474;11.106;2023-12-29T04:07:38;7.05;;;4.70;;
46355;SDS011;32066;49.474;11.106;2023-12-29T04:10:08;9.38;;;5.10;;
46355;SDS011;32066;49.474;11.106;2023-12-29T04:12:37;9.63;;;4.78;;
46355;SDS011;32066;49.474;11.106;2023-12-29T04:15:06;8.13;;;4.75;;
46355;SDS011;32066;49.474;11.106;2023-12-29T04:17:36;7.32;;;4.65;;
46355;SDS011;32066;49.474;11.106;2023-12-29T04:20:05;9.25;;;4.80;;
46355;SDS011;32066;49.474;11.106;2023-12-29T04:22:37;9.18;;;4.60;;
46355;SDS011;32066;49.474;11.106;2023-12-29T04:25:06;8.55;;;4.85;;
46355;SDS011;32066;49.474;11.106;2023-12-29T04:27:36;8.93;;;4.80;;
46355;SDS011;32066;49.474;11.106;2023-12-29T04:30:05;8.32;;;4.85;;
46355;SDS011;32066;49.474;11.106;2023-12-29T04:32:35;8.15;;;4.65;;
46355;SDS011;32066;49.474;11.106;2023-12-29T04:35:04;8.90;;;4.90;;
46355;SDS011;32066;49.474;11.106;2023-12-29T04:37:37;9.48;;;4.85;;
46355;SDS011;32066;49.474;11.106;2023-12-29T04:40:07;8.68;;;5.05;;
46355;SDS011;32066;49.474;11.106;2023-12-29T04:42:36;8.77;;;5.05;;
46355;SDS011;32066;49.474;11.106;2023-12-29T04:45:05;9.02;;;5.70;;
46355;SDS011;32066;49.474;11.106;2023-12-29T04:47:35;8.25;;;4.88;;
46355;SDS011;32066;49.474;11.106;2023-12-29T04:50:04;7.50;;;4.43;;
46355;SDS011;32066;49.474;11.106;2023-12-29T04:52:34;8.10;;;4.80;;
46355;SDS011;32066;49.474;11.106;2023-12-29T04:55:06;7.38;;;4.72;;
46355;SDS011;32066;49.474;11.106;2023-12-29T04:57:38;9.18;;;4.53;;
46355;SDS011;32066;49.474;11.106;2023-12-29T05:00:07;8.95;;;4.97;;
46355;SDS011;32066;49.474;11.106;2023-12-29T05:02:36;7.13;;;4.60;;
46355;SDS011;32066;49.474;11.106;2023-12-29T05:05:05;6.82;;;4.40;;
46355;SDS011;32066;49.474;11.106;2023-12-29T05:07:34;9.00;;;5.18;;
46355;SDS011;32066;49.474;11.106;2023-12-29T05:10:03;10.90;;;5.32;;
46355;SDS011;32066;49.474;11.106;2023-12-29T05:12:35;9.75;;;5.53;;
46355;SDS011;32066;49.474;11.106;2023-12-29T05:15:04;11.02;;;5.60;;
46355;SDS011;32066;49.474;11.106;2023-12-29T05:17:34;9.40;;;4.63;;
46355;SDS011;32066;49.474;11.106;2023-12-29T05:20:05;10.00;;;4.85;;
46355;SDS011;32066;49.474;11.106;2023-12-29T05:22:35;8.82;;;4.53;;
46355;SDS011;32066;49.474;11.106;2023-12-29T05:25:07;7.50;;;4.80;;
46355;SDS011;32066;49.474;11.106;2023-12-29T05:27:36;7.55;;;4.57;;
46355;SDS011;32066;49.474;11.106;2023-12-29T05:30:05;9.65;;;5.15;;
46355;SDS011;32066;49.474;11.106;2023-12-29T05:32:34;9.75;;;5.22;;
46355;SDS011;32066;49.474;11.106;2023-12-29T05:35:03;10.52;;;5.30;;
46355;SDS011;32066;49.474;11.106;2023-12-29T05:37:32;10.20;;;5.07;;
46355;SDS011;32066;49.474;11.106;2023-12-29T05:40:01;11.75;;;5.70;;
46355;SDS011;32066;49.474;11.106;2023-12-29T05:42:33;12.35;;;5.05;;
46355;SDS011;32066;49.474;11.106;2023-12-29T05:45:02;12.48;;;5.03;;
46355;SDS011;32066;49.474;11.106;2023-12-29T05:47:32;10.70;;;5.47;;
46355;SDS011;32066;49.474;11.106;2023-12-29T05:50:00;11.82;;;5.45;;
46355;SDS011;32066;49.474;11.106;2023-12-29T05:52:29;10.63;;;5.30;;
46355;SDS011;32066;49.474;11.106;2023-12-29T05:54:58;8.68;;;4.97;;
46355;SDS011;32066;49.474;11.106;2023-12-29T05:57:28;10.13;;;5.25;;
46355;SDS011;32066;49.474;11.106;2023-12-29T05:59:59;9.90;;;4.85;;
46355;SDS011;32066;49.474;11.106;2023-12-29T06:02:37;9.45;;;4.50;;
46355;SDS011;32066;49.474;11.106;2023-12-29T06:05:06;9.23;;;4.70;;
46355;SDS011;32066;49.474;11.106;2023-12-29T06:07:35;8.43;;;4.82;;
46355;SDS011;32066;49.474;11.106;2023-12-29T06:10:05;8.23;;;5.05;;
46355;SDS011;32066;49.474;11.106;2023-12-29T06:12:34;9.27;;;5.00;;
46355;SDS011;32066;49.474;11.106;2023-12-29T06:15:06;11.60;;;5.13;;
46355;SDS011;32066;49.474;11.106;2023-12-29T06:17:35;8.75;;;5.25;;
46355;SDS011;32066;49.474;11.106;2023-12-29T06:20:06;9.65;;;4.80;;
46355;SDS011;32066;49.474;11.106;2023-12-29T06:22:38;9.50;;;4.93;;
46355;SDS011;32066;49.474;11.106;2023-12-29T06:25:08;8.63;;;4.78;;
46355;SDS011;32066;49.474;11.106;2023-12-29T06:27:37;8.20;;;5.05;;
46355;SDS011;32066;49.474;11.106;2023-12-29T06:30:09;8.57;;;5.18;;
46355;SDS011;32066;49.474;11.106;2023-12-29T06:32:39;7.28;;;4.47;;
46355;SDS011;32066;49.474;11.106;2023-12-29T06:35:08;8.30;;;5.00;;
46355;SDS011;32066;49.474;11.106;2023-12-29T06:37:39;9.45;;;4.68;;
46355;SDS011;32066;49.474;11.106;2023-12-29T06:40:08;7.88;;;5.22;;
46355;SDS011;32066;49.474;11.106;2023-12-29T06:42:37;8.52;;;4.47;;
46355;SDS011;32066;49.474;11.106;2023-12-29T06:45:09;7.10;;;4.72;;
46355;SDS011;32066;49.474;11.106;2023-12-29T06:47:37;8.25;;;4.45;;
46355;SDS011;32066;49.474;11.106;2023-12-29T06:50:06;9.90;;;4.53;;
46355;SDS011;32066;49.474;11.106;2023-12-29T06:52:37;8.85;;;5.13;;
46355;SDS011;32066;49.474;11.106;2023-12-29T06:55:07;7.07;;;4.35;;
46355;SDS011;32066;49.474;11.106;2023-12-29T06:57:36;6.53;;;4.47;;
46355;SDS011;32066;49.474;11.106;2023-12-29T07:00:05;6.97;;;4.30;;
46355;SDS011;32066;49.474;11.106;2023-12-29T07:02:38;8.35;;;4.63;;
46355;SDS011;32066;49.474;11.106;2023-12-29T07:05:07;6.97;;;4.40;;
46355;SDS011;32066;49.474;11.106;2023-12-29T07:07:36;7.57;;;5.03;;
46355;SDS011;32066;49.474;11.106;2023-12-29T07:10:06;9.13;;;4.63;;
46355;SDS011;32066;49.474;11.106;2023-12-29T07:12:35;7.38;;;4.50;;
46355;SDS011;32066;49.474;11.106;2023-12-29T07:15:04;10.30;;;4.82;;
46355;SDS011;32066;49.474;11.106;2023-12-29T07:17:36;7.70;;;4.82;;
46355;SDS011;32066;49.474;11.106;2023-12-29T07:20:06;8.10;;;4.80;;
46355;SDS011;32066;49.474;11.106;2023-12-29T07:22:40;8.85;;;5.20;;
46355;SDS011;32066;49.474;11.106;2023-12-29T07:25:09;9.15;;;4.95;;
46355;SDS011;32066;49.474;11.106;2023-12-29T07:27:38;8.57;;;4.90;;
46355;SDS011;32066;49.474;11.106;2023-12-29T07:30:07;9.88;;;5.28;;
46355;SDS011;32066;49.474;11.106;2023-12-29T07:32:39;8.25;;;5.22;;
46355;SDS011;32066;49.474;11.106;2023-12-29T07:35:08;8.82;;;4.82;;
46355;SDS011;32066;49.474;11.106;2023-12-29T07:37:40;7.18;;;4.70;;
46355;SDS011;32066;49.474;11.106;2023-12-29T07:40:10;9.18;;;4.90;;
46355;SDS011;32066;49.474;11.106;2023-12-29T07:42:40;9.15;;;4.82;;
46355;SDS011;32066;49.474;11.106;2023-12-29T07:45:11;7.13;;;4.50;;
46355;SDS011;32066;49.474;11.106;2023-12-29T07:47:43;8.52;;;4.90;;
46355;SDS011;32066;49.474;11.106;2023-12-29T07:50:12;7.88;;;4.72;;
46355;SDS011;32066;49.474;11.106;2023-12-29T07:52:42;8.95;;;5.40;;
46355;SDS011;32066;49.474;11.106;2023-12-29T07:55:11;8.57;;;4.70;;
46355;SDS011;32066;49.474;11.106;2023-12-29T07:57:41;8.27;;;5.40;;
46355;SDS011;32066;49.474;11.106;2023-12-29T08:00:12;7.93;;;5.10;;
46355;SDS011;32066;49.474;11.106;2023-12-29T08:02:44;11.60;;;5.43;;
46355;SDS011;32066;49.474;11.106;2023-12-29T08:05:14;8.07;;;4.93;;
46355;SDS011;32066;49.474;11.106;2023-12-29T08:07:42;8.98;;;5.05;;
46355;SDS011;32066;49.474;11.106;2023-12-29T08:10:11;8.82;;;5.60;;
46355;SDS011;32066;49.474;11.106;2023-12-29T08:12:40;8.35;;;4.55;;
46355;SDS011;32066;49.474;11.106;2023-12-29T08:15:09;9.65;;;5.60;;
46355;SDS011;32066;49.474;11.106;2023-12-29T08:17:37;8.93;;;5.32;;
46355;SDS011;32066;49.474;11.106;2023-12-29T08:20:09;8.98;;;5.47;;
46355;SDS011;32066;49.474;11.106;2023-12-29T08:22:39;10.25;;;6.30;;
46355;SDS011;32066;49.474;11.106;2023-12-29T08:25:07;7.53;;;4.15;;
46355;SDS011;32066;49.474;11.106;2023-12-29T08:27:36;7.57;;;4.13;;
46355;SDS011;32066;49.474;11.106;2023-12-29T08:30:06;7.13;;;3.95;;
46355;SDS011;32066;49.474;11.106;2023-12-29T08:32:36;7.13;;;4.00;;
46355;SDS011;32066;49.474;11.106;2023-12-29T08:35:04;7.20;;;4.30;;
46355;SDS011;32066;49.474;11.106;2023-12-29T08:37:36;6.60;;;3.40;;
46355;SDS011;32066;49.474;11.106;2023-12-29T08:40:05;6.43;;;3.50;;
46355;SDS011;32066;49.474;11.106;2023-12-29T08:42:35;5.38;;;2.95;;
46355;SDS011;32066;49.474;11.106;2023-12-29T08:45:04;4.57;;;2.05;;
46355;SDS011;32066;49.474;11.106;2023-12-29T08:47:33;4.28;;;1.98;;
46355;SDS011;32066;49.474;11.106;2023-12-29T08:50:02;4.13;;;2.10;;
46355;SDS011;32066;49.474;11.106;2023-12-29T08:52:31;4.57;;;1.63;;
46355;SDS011;32066;49.474;11.106;2023-12-29T08:55:04;7.43;;;2.30;;
46355;SDS011;32066;49.474;11.106;2023-12-29T08:57:33;3.88;;;1.60;;
46355;SDS011;32066;49.474;11.106;2023-12-29T09:00:02;4.07;;;1.60;;
46355;SDS011;32066;49.474;11.106;2023-12-29T09:02:31;3.13;;;1.40;;
46355;SDS011;32066;49.474;11.106;2023-12-29T09:05:00;3.38;;;1.50;;
46355;SDS011;32066;49.474;11.106;2023-12-29T09:07:28;4.35;;;1.50;;
46355;SDS011;32066;49.474;11.106;2023-12-29T09:09:57;3.40;;;1.30;;
46355;SDS011;32066;49.474;11.106;2023-12-29T09:12:29;4.15;;;1.55;;
46355;SDS011;32066;49.474;11.106;2023-12-29T09:14:58;3.60;;;1.58;;
46355;SDS011;32066;49.474;11.106;2023-12-29T09:17:27;4.32;;;1.60;;
46355;SDS011;32066;49.474;11.106;2023-12-29T09:19:56;3.75;;;1.67;;
46355;SDS011;32066;49.474;11.106;2023-12-29T09:22:24;3.85;;;1.40;;
46355;SDS011;32066;49.474;11.106;2023-12-29T09:24:53;3.95;;;1.40;;
46355;SDS011;32066;49.474;11.106;2023-12-29T09:27:22;3.30;;;1.38;;
46355;SDS011;32066;49.474;11.106;2023-12-29T09:29:53;3.85;;;1.50;;
46355;SDS011;32066;49.474;11.106;2023-12-29T09:32:22;3.50;;;1.40;;
46355;SDS011;32066;49.474;11.106;2023-12-29T09:34:50;3.10;;;1.20;;
46355;SDS011;32066;49.474;11.106;2023-12-29T09:37:19;3.47;;;1.40;;
46355;SDS011;32066;49.474;11.106;2023-12-29T09:39:48;3.30;;;1.30;;
46355;SDS011;32066;49.474;11.106;2023-12-29T09:42:19;3.53;;;1.50;;
46355;SDS011;32066;49.474;11.106;2023-12-29T09:44:49;3.50;;;1.48;;
46355;SDS011;32066;49.474;11.106;2023-12-29T09:47:23;3.47;;;1.25;;
46355;SDS011;32066;49.474;11.106;2023-12-29T09:49:53;2.90;;;1.15;;
46355;SDS011;32066;49.474;11.106;2023-12-29T09:52:22;3.75;;;1.50;;
46355;SDS011;32066;49.474;11.106;2023-12-29T09:54:51;3.97;;;1.50;;
46355;SDS011;32066;49.474;11.106;2023-12-29T09:57:20;4.30;;;1.60;;
46355;SDS011;32066;49.474;11.106;2023-12-29T09:59:50;4.25;;;1.60;;
46355;SDS011;32066;49.474;11.106;2023-12-29T10:02:22;4.50;;;1.70;;
46355;SDS011;32066;49.474;11.106;2023-12-29T10:04:51;3.15;;;1.50;;
46355;SDS011;32066;49.474;11.106;2023-12-29T10:07:21;5.05;;;1.42;;
46355;SDS011;32066;49.474;11.106;2023-12-29T10:09:54;3.83;;;1.67;;
46355;SDS011;32066;49.474;11.106;2023-12-29T10:12:24;4.97;;;1.75;;
46355;SDS011;32066;49.474;11.106;2023-12-29T10:14:56;7.60;;;1.75;;
46355;SDS011;32066;49.474;11.106;2023-12-29T10:17:33;4.00;;;1.83;;
46355;SDS011;32066;49.474;11.106;2023-12-29T10:20:11;4.15;;;1.80;;
46355;SDS011;32066;49.474;11.106;2023-12-29T10:22:48;3.38;;;1.70;;
46355;SDS011;32066;49.474;11.106;2023-12-29T10:25:23;3.83;;;1.80;;
46355;SDS011;32066;49.474;11.106;2023-12-29T10:27:52;4.20;;;1.92;;
46355;SDS011;32066;49.474;11.106;2023-12-29T10:30:23;4.07;;;1.77;;
46355;SDS011;32066;49.474;11.106;2023-12-29T10:32:52;4.00;;;1.63;;
46355;SDS011;32066;49.474;11.106;2023-12-29T10:35:21;4.38;;;1.85;;
46355;SDS011;32066;49.474;11.106;2023-12-29T10:37:50;3.90;;;2.00;;
46355;SDS011;32066;49.474;11.106;2023-12-29T10:40:19;4.88;;;2.05;;
46355;SDS011;32066;49.474;11.106;2023-12-29T10:42:52;6.10;;;2.47;;
46355;SDS011;32066;49.474;11.106;2023-12-29T10:45:25;5.75;;;3.50;;
46355;SDS011;32066;49.474;11.106;2023-12-29T10:47:54;5.72;;;3.70;;
46355;SDS011;32066;49.474;11.106;2023-12-29T10:50:23;9.35;;;4.57;;
46355;SDS011;32066;49.474;11.106;2023-12-29T10:52:52;6.93;;;3.88;;
46355;SDS011;32066;49.474;11.106;2023-12-29T10:55:38;7.75;;;4.93;;
46355;SDS011;32066;49.474;11.106;2023-12-29T10:58:07;7.70;;;4.47;;
46355;SDS011;32066;49.474;11.106;2023-12-29T11:00:38;8.88;;;5.20;;
46355;SDS011;32066;49.474;11.106;2023-12-29T11:03:07;7.47;;;4.88;;
46355;SDS011;32066;49.474;11.106;2023-12-29T11:05:37;8.88;;;4.80;;
46355;SDS011;32066;49.474;11.106;2023-12-29T11:08:07;8.45;;;4.50;;
46355;SDS011;32066;49.474;11.106;2023-12-29T11:10:44;6.55;;;4.53;;
46355;SDS011;32066;49.474;11.106;2023-12-29T11:13:13;11.18;;;5.35;;
46355;SDS011;32066;49.474;11.106;2023-12-29T11:15:44;8.43;;;5.00;;
46355;SDS011;32066;49.474;11.106;2023-12-29T11:18:13;8.32;;;5.10;;
46355;SDS011;32066;49.474;11.106;2023-12-29T11:20:43;9.20;;;5.30;;
46355;SDS011;32066;49.474;11.106;2023-12-29T11:23:13;8.60;;;5.15;;
46355;SDS011;32066;49.474;11.106;2023-12-29T11:25:43;8.43;;;5.13;;
46355;SDS011;32066;49.474;11.106;2023-12-29T11:28:13;7.93;;;5.03;;
46355;SDS011;32066;49.474;11.106;2023-12-29T11:30:45;8.02;;;5.00;;
46355;SDS011;32066;49.474;11.106;2023-12-29T11:33:14;8.63;;;5.15;;
46355;SDS011;32066;49.474;11.106;2023-12-29T11:35:47;8.93;;;5.00;;
46355;SDS011;32066;49.474;11.106;2023-12-29T11:38:29;9.30;;;4.63;;
46355;SDS011;32066;49.474;11.106;2023-12-29T11:41:05;7.68;;;5.28;;
46355;SDS011;32066;49.474;11.106;2023-12-29T11:43:37;7.30;;;4.47;;
46355;SDS011;32066;49.474;11.106;2023-12-29T11:46:08;7.78;;;4.85;;
46355;SDS011;32066;49.474;11.106;2023-12-29T11:49:00;7.75;;;5.05;;
46355;SDS011;32066;49.474;11.106;2023-12-29T11:51:31;7.35;;;4.85;;
46355;SDS011;32066;49.474;11.106;2023-12-29T11:54:03;8.48;;;5.30;;
46355;SDS011;32066;49.474;11.106;2023-12-29T11:56:34;7.40;;;4.60;;
46355;SDS011;32066;49.474;11.106;2023-12-29T11:59:14;8.80;;;5.05;;
46355;SDS011;32066;49.474;11.106;2023-12-29T12:01:48;8.45;;;4.97;;
46355;SDS011;32066;49.474;11.106;2023-12-29T12:04:33;22.45;;;5.93;;
46355;SDS011;32066;49.474;11.106;2023-12-29T12:07:05;11.07;;;4.80;;
46355;SDS011;32066;49.474;11.106;2023-12-29T12:09:35;9.45;;;3.80;;
46355;SDS011;32066;49.474;11.106;2023-12-29T12:12:04;9.13;;;3.67;;
46355;SDS011;32066;49.474;11.106;2023-12-29T12:17:30;7.80;;;3.15;;
46355;SDS011;32066;49.474;11.106;2023-12-29T12:19:57;6.07;;;2.60;;
46355;SDS011;32066;49.474;11.106;2023-12-29T12:22:44;5.48;;;2.55;;
46355;SDS011;32066;49.474;11.106;2023-12-29T12:25:27;5.15;;;2.30;;
46355;SDS011;32066;49.474;11.106;2023-12-29T12:28:01;4.00;;;1.73;;
46355;SDS011;32066;49.474;11.106;2023-12-29T12:30:33;3.67;;;1.55;;
46355;SDS011;32066;49.474;11.106;2023-12-29T12:33:05;4.22;;;1.45;;
46355;SDS011;32066;49.474;11.106;2023-12-29T12:35:36;3.13;;;1.17;;
46355;SDS011;32066;49.474;11.106;2023-12-29T12:38:08;4.55;;;1.35;;
46355;SDS011;32066;49.474;11.106;2023-12-29T12:40:38;3.50;;;1.35;;
46355;SDS011;32066;49.474;11.106;2023-12-29T12:43:07;3.35;;;1.40;;
46355;SDS011;32066;49.474;11.106;2023-12-29T12:45:41;5.18;;;1.60;;
46355;SDS011;32066;49.474;11.106;2023-12-29T12:48:19;3.03;;;0.90;;
46355;SDS011;32066;49.474;11.106;2023-12-29T12:50:50;3.40;;;1.20;;
46355;SDS011;32066;49.474;11.106;2023-12-29T12:53:22;4.50;;;1.15;;
46355;SDS011;32066;49.474;11.106;2023-12-29T12:55:51;4.63;;;1.27;;
46355;SDS011;32066;49.474;11.106;2023-12-29T12:58:20;2.97;;;1.10;;
46355;SDS011;32066;49.474;11.106;2023-12-29T13:00:51;5.13;;;1.30;;
46355;SDS011;32066;49.474;11.106;2023-12-29T13:03:27;3.53;;;1.20;;
46355;SDS011;32066;49.474;11.106;2023-12-29T13:05:57;3.45;;;1.55;;
46355;SDS011;32066;49.474;11.106;2023-12-29T13:08:29;3.78;;;1.30;;
46355;SDS011;32066;49.474;11.106;2023-12-29T13:11:00;3.53;;;1.17;;
46355;SDS011;32066;49.474;11.106;2023-12-29T13:13:36;2.97;;;1.15;;
46355;SDS011;32066;49.474;11.106;2023-12-29T13:16:05;4.90;;;1.38;;
46355;SDS011;32066;49.474;11.106;2023-12-29T13:18:37;3.25;;;1.10;;
46355;SDS011;32066;49.474;11.106;2023-12-29T13:21:05;4.35;;;1.50;;
46355;SDS011;32066;49.474;11.106;2023-12-29T13:23:34;4.03;;;1.30;;
46355;SDS011;32066;49.474;11.106;2023-12-29T13:26:04;3.40;;;1.42;;
46355;SDS011;32066;49.474;11.106;2023-12-29T13:28:35;4.05;;;1.38;;
46355;SDS011;32066;49.474;11.106;2023-12-29T13:31:05;4.28;;;1.40;;
46355;SDS011;32066;49.474;11.106;2023-12-29T13:33:41;2.90;;;1.20;;
46355;SDS011;32066;49.474;11.106;2023-12-29T13:36:18;4.57;;;1.30;;
46355;SDS011;32066;49.474;11.106;2023-12-29T13:38:52;3.60;;;1.40;;
46355;SDS011;32066;49.474;11.106;2023-12-29T13:41:25;3.80;;;1.40;;
46355;SDS011;32066;49.474;11.106;2023-12-29T13:43:57;5.50;;;1.50;;
46355;SDS011;32066;49.474;11.106;2023-12-29T13:46:28;4.68;;;1.23;;
46355;SDS011;32066;49.474;11.106;2023-12-29T13:48:59;4.32;;;1.27;;
46355;SDS011;32066;49.474;11.106;2023-12-29T13:51:29;3.13;;;1.10;;
46355;SDS011;32066;49.474;11.106;2023-12-29T13:53:58;3.45;;;1.40;;
46355;SDS011;32066;49.474;11.106;2023-12-29T13:56:28;3.83;;;1.67;;
46355;SDS011;32066;49.474;11.106;2023-12-29T13:58:57;3.58;;;1.40;;
46355;SDS011;32066;49.474;11.106;2023-12-29T14:01:35;4.20;;;1.70;;
46355;SDS011;32066;49.474;11.106;2023-12-29T14:04:10;4.80;;;1.60;;
46355;SDS011;32066;49.474;11.106;2023-12-29T14:06:41;3.43;;;1.30;;
46355;SDS011;32066;49.474;11.106;2023-12-29T14:09:17;3.38;;;1.20;;
46355;SDS011;32066;49.474;11.106;2023-12-29T14:11:47;3.15;;;1.35;;
46355;SDS011;32066;49.474;11.106;2023-12-29T14:14:21;4.63;;;1.30;;
46355;SDS011;32066;49.474;11.106;2023-12-29T14:16:50;3.92;;;1.55;;
46355;SDS011;32066;49.474;11.106;2023-12-29T14:19:22;6.60;;;1.60;;
46355;SDS011;32066;49.474;11.106;2023-12-29T14:21:50;4.57;;;1.70;;
46355;SDS011;32066;49.474;11.106;2023-12-29T14:24:22;3.63;;;1.60;;
46355;SDS011;32066;49.474;11.106;2023-12-29T14:26:54;6.57;;;1.73;;
46355;SDS011;32066;49.474;11.106;2023-12-29T14:29:24;6.10;;;2.00;;
46355;SDS011;32066;49.474;11.106;2023-12-29T14:31:53;4.28;;;1.67;;
46355;SDS011;32066;49.474;11.106;2023-12-29T14:34:25;5.40;;;1.60;;
46355;SDS011;32066;49.474;11.106;2023-12-29T14:36:53;3.50;;;1.40;;
46355;SDS011;32066;49.474;11.106;2023-12-29T14:39:22;3.78;;;1.45;;
46355;SDS011;32066;49.474;11.106;2023-12-29T14:41:50;4.80;;;1.60;;
46355;SDS011;32066;49.474;11.106;2023-12-29T14:44:19;3.30;;;1.27;;
46355;SDS011;32066;49.474;11.106;2023-12-29T14:46:49;5.32;;;1.20;;
46355;SDS011;32066;49.474;11.106;2023-12-29T14:49:17;3.55;;;1.30;;
46355;SDS011;32066;49.474;11.106;2023-12-29T14:51:49;4.28;;;1.45;;
46355;SDS011;32066;49.474;11.106;2023-12-29T14:54:18;4.18;;;1.58;;